Time;durP1;ratioP1;P1;durP2;ratioP2;P2;SDS_P1;SDS_P2;PMS_P1;PMS_P2;Temp;Humidity;BMP_temperature;BMP_pressure;BME280_temperature;BME280_humidity;BME280_pressure;Samples;Min_cycle;Max_cycle;Signal;HPM_P1;HPM_P2
2022/04/16 00:00:52;;;;;;;;;;;;;;;8.33;82.06;103085.03;5053606;28;20008;-33
2022/04/16 00:03:17;;;;;;;;;;;;;;;8.30;82.36;103079.97;5052841;28;19924;-33
2022/04/16 00:05:44;;;;;;;;;;;;;;;8.31;81.16;103080.81;5053665;28;19913;-33
2022/04/16 00:08:09;;;;;;;;;;;;;;;8.28;82.45;103079.28;5053048;28;19917;-33
2022/04/16 00:10:35;;;;;;;;;;;;;;;8.26;80.98;103076.75;5053349;28;19919;-33
2022/04/16 00:13:01;;;;;;;;;;;;;;;8.22;81.67;103071.84;5052846;28;19913;-33
2022/04/16 00:15:26;;;;;;;;;;;;;;;8.14;83.15;103075.31;5052831;28;20292;-33
2022/04/16 00:17:52;;;;;;;;;;;;;;;8.14;82.44;103072.63;5052776;28;19966;-33
2022/04/16 00:20:17;;;;;;;;;;;;;;;8.13;82.36;103079.03;5053630;28;19913;-33
2022/04/16 00:22:42;;;;;;;;;;;;;;;8.08;83.61;103078.66;5052778;28;19971;-33
2022/04/16 00:25:08;;;;;;;;;;;;;;;8.05;83.61;103075.44;5053349;28;19995;-33
2022/04/16 00:27:34;;;;;;;;;;;;;;;8.04;82.89;103077.31;5053689;28;19948;-33
2022/04/16 00:29:59;;;;;;;;;;;;;;;7.97;83.86;103077.09;5053186;28;20424;-33
2022/04/16 00:32:24;;;;;;;;;;;;;;;7.89;84.23;103077.03;5052907;28;20016;-33
2022/04/16 00:34:50;;;;;;;;;;;;;;;7.90;83.30;103073.34;5053154;28;19987;-33
2022/04/16 00:37:16;;;;;;;;;;;;;;;7.93;82.73;103077.56;5053403;28;19913;-33
2022/04/16 00:39:41;;;;;;;;;;;;;;;7.93;83.92;103083.81;5052552;28;19913;-33
2022/04/16 00:42:07;;;;;;;;;;;;;;;7.86;84.34;103074.69;5053361;28;19920;-33
2022/04/16 00:44:33;;;;;;;;;;;;;;;7.84;83.14;103076.69;5052838;28;19913;-33
2022/04/16 00:46:58;;;;;;;;;;;;;;;7.83;84.12;103083.06;5052503;28;19917;-33
2022/04/16 00:49:23;;;;;;;;;;;;;;;7.75;85.27;103085.69;5056275;28;19912;-34
2022/04/16 00:51:49;;;;;;;;;;;;;;;7.68;84.75;103084.66;5057094;28;19985;-33
2022/04/16 00:54:15;;;;;;;;;;;;;;;7.62;85.19;103091.53;5056261;28;19920;-33
2022/04/16 00:56:40;;;;;;;;;;;;;;;7.65;84.39;103087.66;5056244;28;19967;-34
2022/04/16 00:59:05;;;;;;;;;;;;;;;7.59;85.75;103088.28;5056835;28;19916;-33
2022/04/16 01:01:31;;;;;;;;;;;;;;;7.57;85.85;103095.69;5055934;28;19939;-33
2022/04/16 01:03:56;;;;;;;;;;;;;;;7.55;85.55;103084.22;5056213;28;19912;-33
2022/04/16 01:06:21;;;;;;;;;;;;;;;7.54;84.76;103083.38;5056292;28;20015;-33
2022/04/16 01:08:47;;;;;;;;;;;;;;;7.53;85.38;103086.22;5056346;28;19920;-33
2022/04/16 01:11:12;;;;;;;;;;;;;;;7.56;84.74;103085.88;5056120;28;20320;-33
2022/04/16 01:13:38;;;;;;;;;;;;;;;7.56;83.87;103085.88;5056078;28;20015;-33
2022/04/16 01:16:06;;;;;;;;;;;;;;;7.54;85.74;103090.59;5056008;28;19981;-33
2022/04/16 01:18:32;;;;;;;;;;;;;;;7.49;85.78;103091.91;5055962;28;20303;-33
2022/04/16 01:20:57;;;;;;;;;;;;;;;7.43;85.53;103089.84;5056774;28;20013;-33
2022/04/16 01:23:22;;;;;;;;;;;;;;;7.42;85.34;103088.16;5055635;28;19917;-33
2022/04/16 01:25:47;;;;;;;;;;;;;;;7.32;87.47;103102.69;5056630;28;20337;-33
2022/04/16 01:28:13;;;;;;;;;;;;;;;7.29;86.86;103101.16;5055819;28;19913;-33
2022/04/16 01:30:38;;;;;;;;;;;;;;;7.33;85.59;103096.31;5056037;28;19978;-33
2022/04/16 01:33:03;;;;;;;;;;;;;;;7.27;87.68;103097.78;5055230;28;20004;-33
2022/04/16 01:35:29;;;;;;;;;;;;;;;7.19;87.98;103095.00;5056167;28;19913;-33
2022/04/16 01:37:54;;;;;;;;;;;;;;;7.17;87.13;103097.00;5055509;28;20361;-33
2022/04/16 01:40:20;;;;;;;;;;;;;;;7.16;87.40;103106.06;5055536;28;19913;-33
2022/04/16 01:42:45;;;;;;;;;;;;;;;7.14;87.71;103108.09;5055531;28;19912;-33
2022/04/16 01:45:11;;;;;;;;;;;;;;;7.18;87.12;103107.63;5056070;28;19935;-33
2022/04/16 01:47:38;;;;;;;;;;;;;;;7.19;87.32;103106.63;5055156;28;19967;-33
2022/04/16 01:50:05;;;;;;;;;;;;;;;7.23;86.44;103109.84;5055699;28;20311;-33
2022/04/16 01:52:30;;;;;;;;;;;;;;;7.24;86.74;103103.47;5055266;28;19957;-33
2022/04/16 01:54:55;;;;;;;;;;;;;;;7.26;86.67;103106.84;5071301;28;20003;-33
2022/04/16 01:57:21;;;;;;;;;;;;;;;7.26;86.30;103112.22;5055106;28;19924;-33
2022/04/16 01:59:46;;;;;;;;;;;;;;;7.22;87.15;103100.94;5054916;28;19913;-33
2022/04/16 02:02:12;;;;;;;;;;;;;;;7.17;87.55;103102.38;5055501;28;19913;-33
2022/04/16 02:04:37;;;;;;;;;;;;;;;7.15;87.68;103105.22;5055249;28;19916;-33
2022/04/16 02:07:02;;;;;;;;;;;;;;;7.03;88.63;103103.78;5055376;28;19920;-33
2022/04/16 02:09:27;;;;;;;;;;;;;;;6.97;89.70;103107.06;5055492;28;19917;-33
2022/04/16 02:11:52;;;;;;;;;;;;;;;6.95;89.73;103101.84;5055136;28;19920;-33
2022/04/16 02:14:18;;;;;;;;;;;;;;;6.96;88.45;103106.22;5055130;28;19917;-33
2022/04/16 02:16:43;;;;;;;;;;;;;;;6.95;88.57;103104.53;5055441;28;19912;-33
2022/04/16 02:19:09;;;;;;;;;;;;;;;6.91;89.07;103100.44;5055094;28;19917;-33
2022/04/16 02:21:35;;;;;;;;;;;;;;;6.92;88.67;103099.44;5054810;28;19913;-33
2022/04/16 02:24:00;;;;;;;;;;;;;;;6.99;88.08;103109.59;5054784;28;20007;-33
2022/04/16 02:26:26;;;;;;;;;;;;;;;6.96;89.99;103100.81;5055092;28;20368;-33
2022/04/16 02:28:51;;;;;;;;;;;;;;;6.90;89.57;103101.44;5055202;28;19959;-33
2022/04/16 02:31:16;;;;;;;;;;;;;;;6.80;91.24;103106.03;5054849;28;20277;-33
2022/04/16 02:33:41;;;;;;;;;;;;;;;6.77;91.17;103106.31;5054208;28;19913;-33
2022/04/16 02:36:07;;;;;;;;;;;;;;;6.72;90.94;103103.25;5054784;28;20007;-33
2022/04/16 02:38:33;;;;;;;;;;;;;;;6.76;89.42;103107.34;5054471;28;20003;-33
2022/04/16 02:40:58;;;;;;;;;;;;;;;6.80;89.27;103106.03;5054694;28;20015;-33
2022/04/16 02:43:23;;;;;;;;;;;;;;;6.76;90.72;103112.72;5054209;28;19976;-33
2022/04/16 02:48:33;;;;;;;;;;;;;;;6.69;91.30;103111.63;5053986;28;19935;-33
2022/04/16 02:50:58;;;;;;;;;;;;;;;6.65;92.01;103118.31;5054211;28;19927;-33
2022/04/16 02:53:26;;;;;;;;;;;;;;;6.63;91.33;103115.75;5053668;28;19912;-33
2022/04/16 02:55:51;;;;;;;;;;;;;;;6.66;90.38;103120.00;5054307;28;19916;-33
2022/04/16 02:58:16;;;;;;;;;;;;;;;6.64;91.29;103122.00;5054128;28;19923;-33
2022/04/16 03:00:42;;;;;;;;;;;;;;;6.59;91.24;103126.97;5053672;28;19916;-33
2022/04/16 03:03:08;;;;;;;;;;;;;;;6.59;91.78;103118.91;5054014;28;19923;-33
2022/04/16 03:05:34;;;;;;;;;;;;;;;6.59;90.84;103124.28;5054113;28;20365;-33
2022/04/16 03:08:00;;;;;;;;;;;;;;;6.62;90.22;103127.50;5053825;28;19913;-33
2022/04/16 03:10:25;;;;;;;;;;;;;;;6.62;89.93;103126.66;5053882;28;19912;-33
2022/04/16 03:12:51;;;;;;;;;;;;;;;6.56;91.18;103132.63;5054468;28;19913;-33
2022/04/16 03:18:02;;;;;;;;;;;;;;;6.60;90.11;103131.34;5054288;28;19975;-33
2022/04/16 03:20:29;;;;;;;;;;;;;;;6.61;90.10;103131.19;5053743;28;19952;-33
2022/04/16 03:22:54;;;;;;;;;;;;;;;6.63;88.59;103133.72;5053398;28;19919;-33
2022/04/16 03:25:20;;;;;;;;;;;;;;;6.61;90.24;103135.72;5053636;28;20014;-33
2022/04/16 03:27:45;;;;;;;;;;;;;;;6.56;89.38;103128.09;5053611;28;20394;-33
2022/04/16 03:30:11;;;;;;;;;;;;;;;6.53;89.79;103128.38;5054338;28;19920;-33
2022/04/16 03:32:39;;;;;;;;;;;;;;;6.51;90.12;103135.75;5053142;28;19920;-33
2022/04/16 03:35:05;;;;;;;;;;;;;;;6.51;90.36;103143.84;5054136;28;19913;-33
2022/04/16 03:37:31;;;;;;;;;;;;;;;6.48;90.55;103138.75;5053232;28;19919;-33
2022/04/16 03:39:57;;;;;;;;;;;;;;;6.43;90.83;103138.34;5053517;28;19983;-33
2022/04/16 03:42:22;;;;;;;;;;;;;;;6.41;91.58;103137.66;5053380;28;20373;-33
2022/04/16 03:44:47;;;;;;;;;;;;;;;6.31;92.63;103142.22;5053501;28;20011;-33
2022/04/16 03:47:12;;;;;;;;;;;;;;;6.32;92.32;103138.53;5053541;28;20015;-33
2022/04/16 03:49:37;;;;;;;;;;;;;;;6.34;92.33;103145.44;5053313;28;20011;-33
2022/04/16 03:52:03;;;;;;;;;;;;;;;6.37;91.33;103131.72;5069073;28;19913;-33
2022/04/16 03:59:59;;;;;;;;;;;;;;;6.45;89.75;103139.91;5053616;28;19919;-33
2022/04/16 04:02:25;;;;;;;;;;;;;;;6.43;90.90;103136.50;5053278;28;19948;-33
2022/04/16 04:04:50;;;;;;;;;;;;;;;6.43;89.83;103149.94;5053173;28;19959;-33
2022/04/16 04:07:16;;;;;;;;;;;;;;;6.44;89.81;103140.03;5053467;28;19970;-33
2022/04/16 04:09:41;;;;;;;;;;;;;;;6.45;90.12;103137.22;5051817;28;19920;-33
2022/04/16 04:12:12;;;;;;;;;;;;;;;6.45;89.74;103139.91;5053616;28;19919;-33
2022/04/16 04:14:39;;;;;;;;;;;;;;;6.44;89.55;103140.03;5053114;28;19917;-33
2022/04/16 04:17:06;;;;;;;;;;;;;;;6.40;90.47;103141.34;5053330;28;19966;-33
2022/04/16 04:19:31;;;;;;;;;;;;;;;6.36;90.45;103151.53;5053063;28;19912;-33
2022/04/16 04:21:57;;;;;;;;;;;;;;;6.35;90.41;103149.00;5054324;28;20438;-33
2022/04/16 04:24:22;;;;;;;;;;;;;;;6.31;91.21;103158.34;5057211;28;20367;-33
2022/04/16 04:26:47;;;;;;;;;;;;;;;6.22;90.86;103154.69;5056967;28;19948;-33
2022/04/16 04:29:12;;;;;;;;;;;;;;;6.22;90.61;103157.38;5056783;28;20003;-33
2022/04/16 04:31:37;;;;;;;;;;;;;;;6.25;90.54;103165.16;5057192;28;19920;-32
2022/04/16 04:34:03;;;;;;;;;;;;;;;6.24;91.58;103166.13;5056805;28;20070;-33
2022/04/16 04:36:28;;;;;;;;;;;;;;;6.22;91.25;103165.44;5057040;28;20552;-33
2022/04/16 04:38:53;;;;;;;;;;;;;;;6.21;90.91;103163.75;5056410;28;20384;-33
2022/04/16 04:41:18;;;;;;;;;;;;;;;6.14;92.78;103165.31;5056836;28;20017;-33
2022/04/16 04:43:43;;;;;;;;;;;;;;;6.09;91.96;103173.78;5056711;28;20062;-33
2022/04/16 04:46:09;;;;;;;;;;;;;;;6.11;91.57;103174.50;5056656;28;19912;-33
2022/04/16 04:48:34;;;;;;;;;;;;;;;6.08;92.35;103180.16;5056615;28;19917;-33
2022/04/16 04:50:59;;;;;;;;;;;;;;;6.05;92.14;103182.28;5057335;28;19913;-33
2022/04/16 04:53:24;;;;;;;;;;;;;;;6.00;93.16;103177.34;5056069;28;19913;-33
2022/04/16 04:55:50;;;;;;;;;;;;;;;6.01;91.88;103184.44;5056328;28;19912;-33
2022/04/16 04:58:15;;;;;;;;;;;;;;;6.06;90.92;103186.69;5071595;28;19923;-33
2022/04/16 05:00:40;;;;;;;;;;;;;;;6.10;90.85;103188.06;5056319;28;20349;-33
2022/04/16 05:03:05;;;;;;;;;;;;;;;6.17;90.43;103181.13;5055797;28;19912;-33
2022/04/16 05:05:30;;;;;;;;;;;;;;;6.14;92.80;103193.00;5056510;28;19919;-33
2022/04/16 05:07:55;;;;;;;;;;;;;;;6.16;90.84;103195.56;5056154;28;19955;-33
2022/04/16 05:10:22;;;;;;;;;;;;;;;6.16;92.05;103187.50;5056382;28;20325;-33
2022/04/16 05:12:47;;;;;;;;;;;;;;;6.16;91.80;103191.03;5056451;28;19990;-33
2022/04/16 05:15:12;;;;;;;;;;;;;;;6.18;90.72;103196.25;5056081;28;20038;-33
2022/04/16 05:17:37;;;;;;;;;;;;;;;6.22;90.75;103205.72;5055577;28;19924;-33
2022/04/16 05:20:04;;;;;;;;;;;;;;;6.21;91.80;103201.34;5055935;28;19912;-33
2022/04/16 05:22:29;;;;;;;;;;;;;;;6.26;91.57;103203.63;5056078;28;19965;-33
2022/04/16 05:24:55;;;;;;;;;;;;;;;6.28;92.67;103202.47;5055808;28;20003;-33
2022/04/16 05:27:20;;;;;;;;;;;;;;;6.34;92.59;103201.88;5055510;28;20007;-33
2022/04/16 05:32:47;;;;;;;;;;;;;;;6.41;92.04;103200.31;5056302;28;20122;-33
2022/04/16 05:35:13;;;;;;;;;;;;;;;6.45;93.77;103208.94;5055675;28;19964;-33
2022/04/16 05:37:38;;;;;;;;;;;;;;;6.40;94.65;103208.53;5055645;28;19920;-33
2022/04/16 05:40:04;;;;;;;;;;;;;;;6.48;94.32;103208.63;5056412;28;19958;-33
2022/04/16 05:42:29;;;;;;;;;;;;;;;6.36;96.85;103207.97;5055801;28;19912;-34
2022/04/16 05:45:01;;;;;;;;;;;;;;;6.41;95.63;103203.00;5055435;28;19913;-33
2022/04/16 05:47:26;;;;;;;;;;;;;;;6.47;96.51;103211.47;5055368;28;20368;-33
2022/04/16 05:49:51;;;;;;;;;;;;;;;6.51;97.57;103207.50;5055414;28;19927;-34
2022/04/16 05:52:18;;;;;;;;;;;;;;;6.58;96.93;103213.97;5055503;28;19912;-34
2022/04/16 05:54:43;;;;;;;;;;;;;;;6.65;97.31;103215.94;5055525;28;19913;-33
2022/04/16 05:57:09;;;;;;;;;;;;;;;6.79;95.84;103214.63;5055464;28;20357;-34
2022/04/16 05:59:35;;;;;;;;;;;;;;;6.88;96.92;103220.91;5054978;28;20304;-34
2022/04/16 06:02:00;;;;;;;;;;;;;;;6.80;98.35;103224.38;5055698;28;19913;-33
2022/04/16 06:04:25;;;;;;;;;;;;;;;6.90;97.54;103224.31;5055060;28;20361;-33
2022/04/16 06:06:51;;;;;;;;;;;;;;;6.87;98.21;103235.38;5055339;28;19928;-33
2022/04/16 06:09:16;;;;;;;;;;;;;;;7.03;98.72;103234.72;5053563;28;19912;-33
2022/04/16 06:11:42;;;;;;;;;;;;;;;7.12;98.27;103236.53;5055260;28;19913;-33
2022/04/16 06:14:07;;;;;;;;;;;;;;;7.21;97.98;103251.78;5054875;28;19917;-33
2022/04/16 06:16:33;;;;;;;;;;;;;;;7.27;98.42;103244.94;5055619;28;19913;-33
2022/04/16 06:18:58;;;;;;;;;;;;;;;7.40;97.63;103240.03;5054713;28;20365;-33
2022/04/16 06:21:23;;;;;;;;;;;;;;;7.55;97.86;103245.75;5053478;28;19919;-34
2022/04/16 06:23:48;;;;;;;;;;;;;;;7.64;97.30;103245.69;5054725;28;19913;-34
2022/04/16 06:26:13;;;;;;;;;;;;;;;7.67;97.10;103255.31;5055221;28;20003;-34
2022/04/16 06:28:39;;;;;;;;;;;;;;;7.70;96.57;103260.38;5055030;28;20372;-34
2022/04/16 06:31:04;;;;;;;;;;;;;;;7.82;96.38;103248.41;5054434;28;19920;-34
2022/04/16 06:33:29;;;;;;;;;;;;;;;7.84;95.85;103250.94;5054527;28;19912;-34
2022/04/16 06:35:54;;;;;;;;;;;;;;;7.87;96.34;103253.31;5055171;28;19984;-34
2022/04/16 06:38:20;;;;;;;;;;;;;;;8.00;95.77;103251.94;5054547;28;19999;-34
2022/04/16 06:40:45;;;;;;;;;;;;;;;8.11;95.00;103250.00;5054273;28;19920;-34
2022/04/16 06:43:10;;;;;;;;;;;;;;;8.15;95.44;103248.66;5054347;28;19916;-34
2022/04/16 06:45:35;;;;;;;;;;;;;;;8.21;95.11;103253.44;5053376;28;19967;-34
2022/04/16 06:48:00;;;;;;;;;;;;;;;8.33;94.47;103262.97;5054220;28;19919;-34
2022/04/16 06:50:26;;;;;;;;;;;;;;;8.46;95.09;103259.88;5054866;28;20280;-34
2022/04/16 06:52:53;;;;;;;;;;;;;;;8.45;94.32;103256.34;5053881;28;19919;-34
2022/04/16 06:55:19;;;;;;;;;;;;;;;8.62;94.11;103256.44;5054192;28;19913;-34
2022/04/16 06:57:44;;;;;;;;;;;;;;;8.70;93.00;103259.22;5054068;28;19920;-34
2022/04/16 07:00:10;;;;;;;;;;;;;;;8.76;93.16;103253.16;5054318;28;20207;-34
2022/04/16 07:02:36;;;;;;;;;;;;;;;8.79;92.81;103257.41;5054782;28;19912;-34
2022/04/16 07:05:02;;;;;;;;;;;;;;;8.90;92.93;103252.56;5054251;28;19913;-34
2022/04/16 07:07:27;;;;;;;;;;;;;;;9.01;91.98;103256.81;5053595;28;19939;-34
2022/04/16 07:09:53;;;;;;;;;;;;;;;9.02;91.34;103266.59;5053942;28;19944;-34
2022/04/16 07:12:18;;;;;;;;;;;;;;;9.10;91.01;103269.34;5053403;28;20003;-34
2022/04/16 07:14:43;;;;;;;;;;;;;;;9.19;90.89;103270.22;5053970;28;19913;-34
2022/04/16 07:17:09;;;;;;;;;;;;;;;9.28;91.10;103266.56;5054317;28;19912;-34
2022/04/16 07:19:35;;;;;;;;;;;;;;;9.37;90.84;103270.97;5053674;28;19962;-34
2022/04/16 07:22:00;;;;;;;;;;;;;;;9.33;89.47;103271.47;5053466;28;20011;-34
2022/04/16 07:24:25;;;;;;;;;;;;;;;9.34;89.25;103273.16;5053425;28;19942;-34
2022/04/16 07:26:53;;;;;;;;;;;;;;;9.27;88.75;103267.53;5053694;28;19920;-34
2022/04/16 07:29:18;;;;;;;;;;;;;;;9.29;88.15;103271.78;5054140;28;19916;-34
2022/04/16 07:31:43;;;;;;;;;;;;;;;9.39;89.08;103277.06;5053934;28;19935;-34
2022/04/16 07:34:08;;;;;;;;;;;;;;;9.52;89.17;103271.19;5053624;28;19967;-34
2022/04/16 07:36:34;;;;;;;;;;;;;;;9.61;88.08;103274.75;5053796;28;20342;-34
2022/04/16 07:38:59;;;;;;;;;;;;;;;9.64;86.70;103271.72;5053216;28;20225;-34
2022/04/16 07:41:24;;;;;;;;;;;;;;;9.71;87.99;103273.59;5053070;28;20265;-34
2022/04/16 07:43:49;;;;;;;;;;;;;;;9.74;87.29;103272.41;5053639;28;19912;-34
2022/04/16 07:46:21;;;;;;;;;;;;;;;9.87;87.64;103272.78;5053107;28;19913;-34
2022/04/16 07:48:46;;;;;;;;;;;;;;;10.02;86.40;103273.81;5053379;28;20003;-34
2022/04/16 07:51:12;;;;;;;;;;;;;;;9.92;85.15;103278.53;5053625;28;20003;-34
2022/04/16 07:53:37;;;;;;;;;;;;;;;9.96;86.44;103279.88;5053229;28;19916;-34
2022/04/16 07:56:02;;;;;;;;;;;;;;;10.05;85.67;103276.19;5053883;28;19913;-34
2022/04/16 07:58:28;;;;;;;;;;;;;;;10.13;85.11;103279.88;5060447;28;19920;-34
2022/04/16 08:00:53;;;;;;;;;;;;;;;10.24;84.83;103271.44;5059584;28;19969;-34
2022/04/16 08:03:18;;;;;;;;;;;;;;;10.24;84.74;103271.44;5059541;28;19913;-34
2022/04/16 08:05:43;;;;;;;;;;;;;;;10.29;84.36;103269.94;5060405;28;19912;-34
2022/04/16 08:08:10;;;;;;;;;;;;;;;10.42;85.12;103274.00;5060074;28;19916;-34
2022/04/16 08:10:37;;;;;;;;;;;;;;;10.34;83.82;103274.81;5059510;28;20365;-34
2022/04/16 08:13:02;;;;;;;;;;;;;;;10.47;84.01;103280.56;5060221;28;20310;-34
2022/04/16 08:15:27;;;;;;;;;;;;;;;10.61;83.77;103280.91;5060013;28;19962;-34
2022/04/16 08:17:53;;;;;;;;;;;;;;;10.56;82.20;103273.28;5059427;28;20010;-34
2022/04/16 08:20:18;;;;;;;;;;;;;;;10.75;82.63;103274.78;5059220;28;19963;-34
2022/04/16 08:22:46;;;;;;;;;;;;;;;10.79;81.81;103276.13;5059709;28;20273;-34
2022/04/16 08:27:49;;;;;;;;;;;;;;;10.96;80.01;103276.91;5059715;28;19920;-34
2022/04/16 08:30:15;;;;;;;;;;;;;;;11.06;80.09;103275.69;5058613;28;19916;-34
2022/04/16 08:32:41;;;;;;;;;;;;;;;11.16;79.31;103280.03;5059910;28;20368;-34
2022/04/16 08:35:07;;;;;;;;;;;;;;;11.28;79.65;103292.19;5060272;28;19913;-34
2022/04/16 08:37:32;;;;;;;;;;;;;;;11.31;78.61;103284.53;5059749;28;19958;-34
2022/04/16 08:39:57;;;;;;;;;;;;;;;11.46;79.58;103279.22;5059619;28;19982;-34
2022/04/16 08:42:22;;;;;;;;;;;;;;;11.59;79.36;103290.34;5059598;28;19920;-34
2022/04/16 08:44:48;;;;;;;;;;;;;;;11.74;78.14;103285.00;5059155;28;19935;-34
2022/04/16 08:47:14;;;;;;;;;;;;;;;11.77;76.64;103289.22;5059357;28;19920;-34
2022/04/16 08:49:41;;;;;;;;;;;;;;;11.87;76.92;103292.56;5059685;28;19912;-34
2022/04/16 08:52:08;;;;;;;;;;;;;;;11.99;76.82;103282.13;5059487;28;20276;-34
2022/04/16 08:54:35;;;;;;;;;;;;;;;12.09;76.86;103291.72;5058991;28;19919;-34
2022/04/16 08:57:01;;;;;;;;;;;;;;;12.14;75.16;103290.31;5058802;28;20381;-34
2022/04/16 08:59:26;;;;;;;;;;;;;;;12.03;74.41;103287.03;5059948;28;19923;-34
2022/04/16 09:01:51;;;;;;;;;;;;;;;12.03;75.00;103281.59;5057643;28;19935;-34
2022/04/16 09:04:20;;;;;;;;;;;;;;;12.16;75.68;103282.88;5058912;28;19919;-34
2022/04/16 09:06:56;;;;;;;;;;;;;;;12.30;75.64;103282.06;5059996;28;20183;-34
2022/04/16 09:09:21;;;;;;;;;;;;;;;12.32;72.83;103286.28;5054809;28;19943;-34
2022/04/16 09:11:48;;;;;;;;;;;;;;;12.45;73.65;103279.38;5055692;28;20018;-34
2022/04/16 09:14:14;;;;;;;;;;;;;;;12.60;74.43;103282.97;5055918;28;19913;-34
2022/04/16 09:16:39;;;;;;;;;;;;;;;12.67;71.64;103278.47;5055857;28;19920;-34
2022/04/16 09:19:04;;;;;;;;;;;;;;;12.65;70.83;103282.41;5055724;28;19913;-34
2022/04/16 09:21:29;;;;;;;;;;;;;;;12.68;70.54;103287.44;5056189;28;19916;-35
2022/04/16 09:24:00;;;;;;;;;;;;;;;12.74;70.48;103284.84;5055813;28;20415;-34
2022/04/16 09:26:32;;;;;;;;;;;;;;;12.94;71.98;103281.59;5056227;28;20346;-34
2022/04/16 09:29:01;;;;;;;;;;;;;;;13.08;70.32;103267.16;5056012;28;19913;-35
2022/04/16 09:31:28;;;;;;;;;;;;;;;12.99;70.03;103271.84;5056006;28;20276;-34
2022/04/16 09:33:53;;;;;;;;;;;;;;;13.11;69.93;103275.75;5055693;28;19913;-34
2022/04/16 09:36:25;;;;;;;;;;;;;;;12.97;68.89;103270.31;5056653;28;20391;-34
2022/04/16 09:38:58;;;;;;;;;;;;;;;12.98;70.32;103274.72;5055486;28;19966;-34
2022/04/16 09:41:29;;;;;;;;;;;;;;;12.77;69.12;103270.06;5055916;28;19912;-34
2022/04/16 09:43:54;;;;;;;;;;;;;;;12.88;68.61;103259.59;5055881;28;19927;-34
2022/04/16 09:46:20;;;;;;;;;;;;;;;13.08;70.21;103262.56;5055365;28;20331;-34
2022/04/16 09:48:46;;;;;;;;;;;;;;;13.17;68.31;103257.00;5055369;28;19939;-34
2022/04/16 09:51:12;;;;;;;;;;;;;;;13.29;66.58;103252.81;5053652;28;20440;-34
2022/04/16 09:53:37;;;;;;;;;;;;;;;13.13;65.19;103256.56;5055279;28;20011;-35
2022/04/16 09:56:06;;;;;;;;;;;;;;;13.19;67.62;103258.50;5055490;28;20328;-34
2022/04/16 09:58:34;;;;;;;;;;;;;;;12.94;65.91;103247.13;5055914;28;19917;-34
2022/04/16 10:01:00;;;;;;;;;;;;;;;13.16;66.07;103250.72;5054898;28;19988;-34
2022/04/16 10:03:26;;;;;;;;;;;;;;;13.31;64.87;103257.00;5054927;28;19920;-34
2022/04/16 10:05:52;;;;;;;;;;;;;;;13.41;64.79;103248.56;5055476;28;19913;-34
2022/04/16 10:08:17;;;;;;;;;;;;;;;13.73;65.57;103252.69;5054849;28;19917;-34
2022/04/16 10:10:51;;;;;;;;;;;;;;;13.95;62.98;103255.38;5054842;28;19936;-34
2022/04/16 10:13:19;;;;;;;;;;;;;;;13.89;63.39;103246.13;5054966;28;20007;-35
2022/04/16 10:16:19;;;;;;;;;;;;;;;14.02;61.84;103240.84;5054325;28;20246;-34
2022/04/16 10:18:45;;;;;;;;;;;;;;;13.85;60.90;103233.97;5032480;28;20055;-34
2022/04/16 10:21:14;;;;;;;;;;;;;;;13.83;58.50;103242.31;5032367;28;20015;-34
2022/04/16 10:23:40;;;;;;;;;;;;;;;14.07;58.96;103245.69;5032402;28;19913;-34
2022/04/16 10:26:09;;;;;;;;;;;;;;;14.14;56.94;103249.28;5031013;28;19925;-34
2022/04/16 10:28:37;;;;;;;;;;;;;;;14.22;56.90;103245.59;5030674;28;19924;-34
2022/04/16 10:31:03;;;;;;;;;;;;;;;14.12;58.12;103245.94;5032155;28;19924;-34
2022/04/16 10:33:28;;;;;;;;;;;;;;;14.11;55.87;103252.41;5032649;28;19917;-34
2022/04/16 10:36:11;;;;;;;;;;;;;;;14.22;53.24;103256.47;5032489;28;20006;-34
2022/04/16 10:38:38;;;;;;;;;;;;;;;14.17;53.87;103257.06;5032295;28;19995;-34
2022/04/16 10:41:11;;;;;;;;;;;;;;;14.01;55.66;103249.19;5032528;28;19920;-34
2022/04/16 10:43:36;;;;;;;;;;;;;;;13.91;54.53;103250.38;5032429;28;19960;-34
2022/04/16 10:46:03;;;;;;;;;;;;;;;14.13;54.88;103248.44;5032402;28;20030;-34
2022/04/16 10:48:31;;;;;;;;;;;;;;;14.37;53.27;103249.91;5020660;28;19917;-34
2022/04/16 10:50:58;;;;;;;;;;;;;;;14.58;53.03;103249.03;5012984;28;19945;-34
2022/04/16 10:53:30;;;;;;;;;;;;;;;14.70;51.46;103243.03;5029363;28;20265;-35
2022/04/16 10:55:55;;;;;;;;;;;;;;;14.75;51.49;103240.56;5034708;28;20450;-34
2022/04/16 10:58:27;;;;;;;;;;;;;;;14.98;51.65;103237.50;5034612;28;19972;-34
2022/04/16 11:01:03;;;;;;;;;;;;;;;15.19;50.47;103242.88;5034975;28;19913;-34
2022/04/16 11:03:30;;;;;;;;;;;;;;;15.07;51.32;103233.56;5034611;28;19913;-34
2022/04/16 11:06:02;;;;;;;;;;;;;;;15.00;52.64;103233.56;5034653;28;20350;-34
2022/04/16 11:08:28;;;;;;;;;;;;;;;14.81;51.29;103235.13;5034280;28;19991;-34
2022/04/16 11:11:02;;;;;;;;;;;;;;;14.98;52.15;103235.63;5034381;28;19987;-34
2022/04/16 11:13:29;;;;;;;;;;;;;;;15.20;53.76;103229.03;5034142;28;19920;-34
2022/04/16 11:15:55;;;;;;;;;;;;;;;15.28;51.44;103243.53;5033953;28;19920;-35
2022/04/16 11:18:20;;;;;;;;;;;;;;;15.36;52.71;103235.16;5034069;28;19913;-34
2022/04/16 11:20:55;;;;;;;;;;;;;;;15.40;50.62;103225.53;5034134;28;19920;-34
2022/04/16 11:23:26;;;;;;;;;;;;;;;15.10;50.40;103233.19;5033599;28;19913;-34
2022/04/16 11:34:14;;;;;;;;;;;;;;;14.94;50.87;103239.81;5031355;28;19928;-34
2022/04/16 11:36:39;;;;;;;;;;;;;;;15.01;49.97;103231.69;5031436;28;19948;-34
2022/04/16 11:39:05;;;;;;;;;;;;;;;14.93;48.65;103229.94;5031185;28;20464;-34
2022/04/16 11:41:30;;;;;;;;;;;;;;;15.22;50.77;103230.69;5031327;28;19913;-34
2022/04/16 11:43:55;;;;;;;;;;;;;;;15.20;51.19;103233.66;5031219;28;20262;-34
2022/04/16 11:46:22;;;;;;;;;;;;;;;15.34;51.20;103221.75;5031858;28;20246;-34
2022/04/16 11:48:48;;;;;;;;;;;;;;;15.51;50.33;103221.34;5031268;28;20319;-35
2022/04/16 11:51:14;;;;;;;;;;;;;;;15.50;49.75;103216.97;5031237;28;20289;-34
2022/04/16 11:53:48;;;;;;;;;;;;;;;15.54;50.48;103220.97;5031259;28;19960;-35
2022/04/16 11:56:18;;;;;;;;;;;;;;;15.48;49.19;103225.34;5031589;28;20250;-34
2022/04/16 11:58:47;;;;;;;;;;;;;;;15.46;48.27;103222.81;5031018;28;19924;-35
2022/04/16 12:01:18;;;;;;;;;;;;;;;15.46;48.33;103216.50;5031867;28;19956;-34
2022/04/16 12:03:43;;;;;;;;;;;;;;;15.60;48.02;103214.66;5031027;28;20480;-34
2022/04/16 12:06:09;;;;;;;;;;;;;;;15.69;49.77;103210.72;5032597;28;20015;-34
2022/04/16 12:08:34;;;;;;;;;;;;;;;15.69;50.18;103206.13;5033430;28;19913;-34
2022/04/16 12:11:00;;;;;;;;;;;;;;;15.93;49.86;103206.56;5033086;28;20350;-34
2022/04/16 12:13:32;;;;;;;;;;;;;;;16.03;50.53;103217.06;5032950;28;20246;-35
2022/04/16 12:16:02;;;;;;;;;;;;;;;15.62;48.22;103209.84;5033218;28;20011;-35
2022/04/16 12:18:33;;;;;;;;;;;;;;;15.56;48.04;103208.78;5032862;28;20124;-35
2022/04/16 12:21:05;;;;;;;;;;;;;;;15.80;50.57;103207.38;5033404;28;19921;-35
2022/04/16 12:23:30;;;;;;;;;;;;;;;16.05;49.55;103198.56;5033121;28;19920;-34
2022/04/16 12:26:22;;;;;;;;;;;;;;;16.27;50.03;103202.75;5032756;28;19913;-34
2022/04/16 12:28:48;;;;;;;;;;;;;;;16.32;47.45;103210.31;5032396;28;19913;-35
2022/04/16 12:31:24;;;;;;;;;;;;;;;16.18;46.90;103199.41;5032849;28;19920;-34
2022/04/16 12:33:49;;;;;;;;;;;;;;;16.28;48.33;103196.25;5032612;28;19920;-35
2022/04/16 12:36:14;;;;;;;;;;;;;;;16.03;47.94;103200.69;5032829;28;20357;-35
2022/04/16 12:38:39;;;;;;;;;;;;;;;15.98;48.79;103193.13;5033035;28;19920;-34
2022/04/16 12:41:06;;;;;;;;;;;;;;;16.01;44.70;103191.88;5033643;28;19913;-34
2022/04/16 12:43:31;;;;;;;;;;;;;;;15.99;46.18;103189.34;5032524;28;20277;-34
2022/04/16 12:45:56;;;;;;;;;;;;;;;15.99;44.51;103193.97;5037020;28;19913;-34
2022/04/16 12:48:22;;;;;;;;;;;;;;;16.15;46.57;103197.13;5036378;28;19913;-34
2022/04/16 12:50:48;;;;;;;;;;;;;;;16.36;47.86;103198.75;5036591;28;19917;-34
2022/04/16 12:53:13;;;;;;;;;;;;;;;16.54;45.61;103184.41;5036426;28;19913;-34
2022/04/16 12:55:38;;;;;;;;;;;;;;;16.55;45.25;103188.00;5037038;28;19913;-34
2022/04/16 12:58:05;;;;;;;;;;;;;;;16.44;43.35;103190.31;5036587;28;20309;-34
2022/04/16 13:00:31;;;;;;;;;;;;;;;16.31;44.38;103190.38;5036207;28;20381;-34
2022/04/16 13:02:56;;;;;;;;;;;;;;;16.36;44.32;103181.53;5036315;28;19913;-34